Time;durP1;ratioP1;P1;durP2;ratioP2;P2;SDS_P1;SDS_P2;PMS_P1;PMS_P2;Temp;Humidity;BMP_temperature;BMP_pressure;BME280_temperature;BME280_humidity;BME280_pressure;Samples;Min_cycle;Max_cycle;Signal;HPM_P1;HPM_P2
2023/09/25 00:01:56;;;;;;;2.65;2.03;;;14.40;99.90;;;;;;5040786;28;20206;-79
2023/09/25 00:04:25;;;;;;;1.63;1.40;;;14.20;43.30;;;;;;5045033;28;20209;-79
2023/09/25 00:06:52;;;;;;;2.80;1.75;;;14.20;1.00;;;;;;5065968;28;20547;-79
2023/09/25 00:09:21;;;;;;;1.75;1.63;;;14.20;1.00;;;;;;5042646;28;20218;-79
2023/09/25 00:11:49;;;;;;;2.25;1.63;;;14.20;99.90;;;;;;5041948;28;20211;-79
2023/09/25 00:14:16;;;;;;;2.72;2.00;;;14.20;41.40;;;;;;5043202;28;20206;-79
2023/09/25 00:16:45;;;;;;;2.25;1.90;;;14.20;1.00;;;;;;5055333;28;20218;-76
2023/09/25 00:19:13;;;;;;;3.28;1.70;;;14.10;99.90;;;;;;5055942;28;20237;-78
2023/09/25 00:21:41;;;;;;;2.38;1.65;;;14.10;1.00;;;;;;5028362;28;20202;-78
2023/09/25 00:24:09;;;;;;;1.60;1.50;;;14.00;99.90;;;;;;5033457;28;20212;-79
2023/09/25 00:26:36;;;;;;;2.45;1.80;;;13.90;1.00;;;;;;5042884;28;20202;-79
2023/09/25 00:29:04;;;;;;;1.80;1.70;;;13.80;99.90;;;;;;5036923;28;20289;-77
2023/09/25 00:31:31;;;;;;;1.70;1.60;;;13.80;93.90;;;;;;5059217;28;20191;-79
2023/09/25 00:34:01;;;;;;;3.17;1.90;;;13.80;1.00;;;;;;5034160;28;20206;-79
2023/09/25 00:36:28;;;;;;;2.58;1.60;;;13.60;19.50;;;;;;5034665;28;20210;-79
2023/09/25 00:38:56;;;;;;;2.38;1.70;;;13.50;99.90;;;;;;5040147;28;20223;-79
2023/09/25 00:41:23;;;;;;;1.85;1.65;;;13.40;1.00;;;;;;5037142;28;20205;-79
2023/09/25 00:43:51;;;;;;;1.58;1.45;;;13.30;99.90;;;;;;5041865;28;20214;-79
2023/09/25 00:46:18;;;;;;;3.15;1.75;;;13.40;99.90;;;;;;5040160;28;20194;-79
2023/09/25 00:48:46;;;;;;;1.67;1.58;;;13.20;78.30;;;;;;5040988;28;20217;-78
2023/09/25 00:51:15;;;;;;;3.00;1.52;;;13.20;1.00;;;;;;5043009;28;20213;-78
2023/09/25 00:53:45;;;;;;;2.38;1.75;;;13.40;99.90;;;;;;5038185;28;20199;-79
2023/09/25 00:56:12;;;;;;;2.60;1.70;;;13.40;1.00;;;;;;5035054;28;20206;-79
2023/09/25 00:58:40;;;;;;;3.80;2.00;;;13.50;1.00;;;;;;5052354;28;20253;-79
2023/09/25 01:01:08;;;;;;;2.83;1.65;;;13.50;99.90;;;;;;5049627;28;20198;-78
2023/09/25 01:03:36;;;;;;;2.38;1.90;;;13.60;99.90;;;;;;5042398;28;20195;-78
2023/09/25 01:06:05;;;;;;;2.92;2.20;;;13.50;27.60;;;;;;5034357;28;20186;-79
2023/09/25 01:08:33;;;;;;;1.67;1.58;;;13.30;1.00;;;;;;5029984;28;20214;-79
2023/09/25 01:11:01;;;;;;;1.50;1.40;;;13.20;1.00;;;;;;5064190;28;20206;-79
2023/09/25 01:13:30;;;;;;;2.88;1.70;;;13.00;1.00;;;;;;5034245;28;20203;-79
2023/09/25 01:15:58;;;;;;;1.60;1.48;;;13.00;1.00;;;;;;5039873;28;20244;-78
2023/09/25 01:18:25;;;;;;;2.33;1.80;;;12.80;1.00;;;;;;5053302;28;20232;-79
2023/09/25 01:20:53;;;;;;;1.63;1.50;;;12.80;1.00;;;;;;5027511;28;20206;-79
2023/09/25 01:23:21;;;;;;;2.22;1.88;;;12.80;1.00;;;;;;5032772;28;20672;-79
2023/09/25 01:25:49;;;;;;;2.10;1.83;;;12.80;99.90;;;;;;5038879;28;20190;-79
2023/09/25 01:28:17;;;;;;;1.58;1.48;;;12.80;83.70;;;;;;5033710;28;20230;-79
2023/09/25 01:30:44;;;;;;;2.13;1.67;;;12.80;54.30;;;;;;5039884;28;20202;-79
2023/09/25 01:33:13;;;;;;;2.58;1.70;;;12.90;1.00;;;;;;5040494;28;20194;-79
2023/09/25 01:35:41;;;;;;;1.77;1.67;;;12.80;1.00;;;;;;5057880;28;20213;-78
2023/09/25 01:38:09;;;;;;;2.28;1.77;;;12.80;1.00;;;;;;5029560;28;20210;-79
2023/09/25 01:40:37;;;;;;;2.33;2.08;;;12.80;1.00;;;;;;5038927;28;20210;-80
2023/09/25 01:43:05;;;;;;;3.25;2.17;;;12.80;1.00;;;;;;5031401;28;20671;-80
2023/09/25 01:45:33;;;;;;;2.22;1.95;;;13.00;1.00;;;;;;5034167;28;20190;-79
2023/09/25 01:48:00;;;;;;;1.80;1.70;;;12.90;1.00;;;;;;5052144;28;20228;-79
2023/09/25 01:50:29;;;;;;;2.35;1.77;;;13.00;20.00;;;;;;5041672;28;20200;-79
2023/09/25 01:52:58;;;;;;;3.28;1.90;;;12.90;1.00;;;;;;5053027;28;20656;-79
2023/09/25 01:55:30;;;;;;;2.65;1.95;;;12.90;99.90;;;;;;5034825;28;20198;-79
2023/09/25 01:58:00;;;;;;;2.60;1.50;;;12.90;1.00;;;;;;5044412;28;20223;-78
2023/09/25 02:00:28;;;;;;;2.08;1.88;;;12.80;99.90;;;;;;5038858;28;20208;-79
2023/09/25 02:02:55;;;;;;;1.75;1.50;;;12.60;99.90;;;;;;5042259;28;20208;-79
2023/09/25 02:05:23;;;;;;;3.63;1.63;;;12.60;1.00;;;;;;5044520;28;20197;-79
2023/09/25 02:07:50;;;;;;;2.08;1.80;;;12.40;1.00;;;;;;5039971;28;20232;-79
2023/09/25 02:10:18;;;;;;;1.67;1.58;;;12.30;1.00;;;;;;5046072;28;20202;-79
2023/09/25 02:12:46;;;;;;;2.05;1.40;;;12.30;1.00;;;;;;5038606;28;20199;-79
2023/09/25 02:15:15;;;;;;;3.15;1.88;;;12.30;1.00;;;;;;5041530;28;20203;-78
2023/09/25 02:17:42;;;;;;;2.42;1.48;;;12.40;1.00;;;;;;5041137;28;20229;-79
2023/09/25 02:20:16;;;;;;;2.35;1.80;;;12.50;1.00;;;;;;5043483;28;20218;-79
2023/09/25 02:22:45;;;;;;;1.70;1.60;;;12.50;1.00;;;;;;5044151;28;20198;-79
2023/09/25 02:25:12;;;;;;;1.83;1.73;;;12.50;1.00;;;;;;5039301;28;20207;-79
2023/09/25 02:27:40;;;;;;;2.42;1.77;;;12.60;1.00;;;;;;5038726;28;20672;-79
2023/09/25 02:30:09;;;;;;;1.50;1.40;;;12.60;1.00;;;;;;5038742;28;20205;-78
2023/09/25 02:32:38;;;;;;;2.67;1.80;;;12.70;1.00;;;;;;5037971;28;20537;-79
2023/09/25 02:35:07;;;;;;;2.20;2.00;;;12.80;1.00;;;;;;5034143;28;20221;-79
2023/09/25 02:37:36;;;;;;;1.80;1.70;;;12.80;99.90;;;;;;5043666;28;20210;-79
2023/09/25 02:40:04;;;;;;;2.92;1.70;;;12.90;1.00;;;;;;5033859;28;20207;-79
2023/09/25 02:42:32;;;;;;;1.83;1.48;;;12.60;1.00;;;;;;5045607;28;20198;-79
2023/09/25 02:44:59;;;;;;;1.73;1.50;;;12.50;61.50;;;;;;5043500;28;20212;-79
2023/09/25 02:47:27;;;;;;;1.98;1.70;;;12.30;1.00;;;;;;5057102;28;20197;-79
2023/09/25 02:49:56;;;;;;;4.50;1.80;;;12.20;1.00;;;;;;5059200;28;20199;-79
2023/09/25 02:52:23;;;;;;;2.25;1.65;;;12.20;1.00;;;;;;5056421;28;20222;-79
2023/09/25 02:54:51;;;;;;;2.45;1.50;;;12.20;1.00;;;;;;5056040;28;20206;-78
2023/09/25 02:57:18;;;;;;;1.60;1.50;;;12.20;1.00;;;;;;5059686;28;20211;-78
2023/09/25 02:59:45;;;;;;;1.60;1.30;;;12.20;1.00;;;;;;5060601;28;20767;-79
2023/09/25 03:02:13;;;;;;;2.20;1.45;;;12.10;1.00;;;;;;5051527;28;20212;-77
2023/09/25 03:04:40;;;;;;;1.75;1.63;;;12.20;1.00;;;;;;5062053;28;20253;-79
2023/09/25 03:07:10;;;;;;;1.50;1.40;;;12.20;1.00;;;;;;5043917;28;20201;-78
2023/09/25 03:09:37;;;;;;;1.45;1.23;;;12.20;1.00;;;;;;5045964;28;20206;-79
2023/09/25 03:12:05;;;;;;;1.65;1.55;;;12.20;1.00;;;;;;5039258;28;20198;-79
2023/09/25 03:14:33;;;;;;;1.63;1.25;;;12.10;1.00;;;;;;5040166;28;20209;-78
2023/09/25 03:17:00;;;;;;;2.30;1.58;;;12.10;1.00;;;;;;5041230;28;20215;-79
2023/09/25 03:19:31;;;;;;;2.03;1.60;;;12.50;1.00;;;;;;5044948;28;20215;-79
2023/09/25 03:21:59;;;;;;;2.83;1.55;;;12.40;1.00;;;;;;5066623;28;20202;-79
2023/09/25 03:24:28;;;;;;;1.55;1.40;;;12.40;1.00;;;;;;5046031;28;20221;-78
2023/09/25 03:26:55;;;;;;;1.58;1.48;;;12.70;1.00;;;;;;5045884;28;20209;-79
2023/09/25 03:29:23;;;;;;;1.63;1.52;;;12.80;1.00;;;;;;5041265;28;20230;-79
2023/09/25 03:31:51;;;;;;;1.52;1.42;;;13.20;1.00;;;;;;5042036;28;20202;-78
2023/09/25 03:34:20;;;;;;;3.22;1.60;;;13.20;1.00;;;;;;5048106;28;20191;-79
2023/09/25 03:36:49;;;;;;;2.22;1.50;;;13.70;99.90;;;;;;5048556;28;20220;-76
2023/09/25 03:39:17;;;;;;;1.98;1.15;;;14.00;1.00;;;;;;5048158;28;20226;-79
2023/09/25 03:41:46;;;;;;;2.15;1.40;;;14.00;34.00;;;;;;5045973;28;20199;-79
2023/09/25 03:44:13;;;;;;;2.88;1.30;;;14.10;99.90;;;;;;5063257;28;20203;-77
2023/09/25 03:46:41;;;;;;;1.35;1.00;;;14.20;99.90;;;;;;5042306;28;20202;-78
2023/09/25 03:49:08;;;;;;;2.10;1.20;;;14.30;1.00;;;;;;5040180;28;20696;-78
2023/09/25 03:51:36;;;;;;;1.88;1.30;;;14.40;1.00;;;;;;5042419;28;20208;-79
2023/09/25 03:54:04;;;;;;;2.17;1.40;;;14.40;1.00;;;;;;5047347;28;20206;-79
2023/09/25 03:56:33;;;;;;;3.38;1.40;;;14.50;1.00;;;;;;5042959;28;20183;-79
2023/09/25 04:01:29;;;;;;;1.35;1.13;;;14.40;1.00;;;;;;5029135;28;20210;-78
2023/09/25 04:03:57;;;;;;;1.90;1.70;;;14.50;1.00;;;;;;5008964;28;20207;-78
2023/09/25 04:06:24;;;;;;;1.23;1.13;;;14.50;1.00;;;;;;5018173;28;20201;-78
2023/09/25 04:08:51;;;;;;;2.13;1.50;;;14.50;1.00;;;;;;5019301;28;20235;-78
2023/09/25 04:11:19;;;;;;;2.28;1.15;;;14.50;1.00;;;;;;5014535;28;20215;-77
2023/09/25 04:13:48;;;;;;;1.30;1.20;;;14.50;1.00;;;;;;5027663;28;20203;-77
2023/09/25 04:16:15;;;;;;;3.28;1.40;;;14.50;1.00;;;;;;5032583;28;20198;-77
2023/09/25 04:18:45;;;;;;;1.52;1.42;;;14.40;1.00;;;;;;5065736;28;20607;-77
2023/09/25 04:21:14;;;;;;;2.05;1.30;;;14.40;1.00;;;;;;5051321;28;20225;-77
2023/09/25 04:23:42;;;;;;;2.38;1.40;;;14.50;1.00;;;;;;5051992;28;20193;-77
2023/09/25 04:26:11;;;;;;;1.52;1.42;;;14.50;1.00;;;;;;5034317;28;20313;-77
2023/09/25 04:28:40;;;;;;;2.13;1.52;;;14.50;1.00;;;;;;5043175;28;20193;-77
2023/09/25 04:31:08;;;;;;;1.45;1.33;;;14.60;1.00;;;;;;5039637;28;20684;-77
2023/09/25 04:33:36;;;;;;;2.53;1.75;;;14.60;99.90;;;;;;5044110;28;20191;-77
2023/09/25 04:36:08;;;;;;;1.30;1.08;;;14.60;99.90;;;;;;5034748;28;20205;-77
2023/09/25 04:38:36;;;;;;;1.63;1.40;;;14.60;99.90;;;;;;5059324;28;20218;-77
2023/09/25 04:41:04;;;;;;;2.40;1.55;;;14.60;89.30;;;;;;5064687;28;20218;-77
2023/09/25 04:43:32;;;;;;;1.83;1.45;;;14.60;1.00;;;;;;5034504;28;20533;-77
2023/09/25 04:46:00;;;;;;;2.65;1.48;;;14.50;15.50;;;;;;5034106;28;20213;-77
2023/09/25 04:48:29;;;;;;;1.90;1.52;;;14.50;98.30;;;;;;5033913;28;20191;-77
2023/09/25 04:50:57;;;;;;;1.98;1.33;;;14.50;99.90;;;;;;5033581;28;20233;-77
2023/09/25 04:53:25;;;;;;;4.05;1.65;;;14.40;1.00;;;;;;5035030;28;20202;-77
2023/09/25 04:55:53;;;;;;;1.50;1.40;;;14.40;1.00;;;;;;5034340;28;20210;-77
2023/09/25 04:58:20;;;;;;;2.08;1.35;;;14.30;99.90;;;;;;5033167;28;20237;-77
2023/09/25 05:00:48;;;;;;;1.67;1.58;;;14.40;99.90;;;;;;5024335;28;20233;-77
2023/09/25 05:03:15;;;;;;;1.90;1.50;;;14.40;1.00;;;;;;5025261;28;20661;-77
2023/09/25 05:05:42;;;;;;;2.38;1.70;;;14.50;99.90;;;;;;5031803;28;20237;-77
2023/09/25 05:08:10;;;;;;;2.40;1.35;;;14.40;99.90;;;;;;5034343;28;20202;-78
2023/09/25 05:10:39;;;;;;;1.80;1.35;;;14.50;1.00;;;;;;5033564;28;20218;-78
2023/09/25 05:13:06;;;;;;;1.85;1.50;;;14.40;1.00;;;;;;5032757;28;20194;-77
2023/09/25 05:15:34;;;;;;;3.17;1.48;;;14.40;31.60;;;;;;5034834;28;20203;-77
2023/09/25 05:18:09;;;;;;;2.58;1.50;;;14.30;1.00;;;;;;5050602;28;20222;-77
2023/09/25 05:20:37;;;;;;;2.55;1.50;;;14.30;1.00;;;;;;5035314;28;20213;-77
2023/09/25 05:23:20;;;;;;;2.17;1.70;;;14.30;99.90;;;;;;5032175;28;20568;-77
2023/09/25 05:26:00;;;;;;;2.22;1.33;;;14.30;99.90;;;;;;5032710;28;20198;-76
2023/09/25 05:28:28;;;;;;;1.73;1.60;;;14.20;99.90;;;;;;5047962;28;20217;-77
2023/09/25 05:31:02;;;;;;;1.58;1.40;;;14.20;1.00;;;;;;5033709;28;20222;-77
2023/09/25 05:33:30;;;;;;;3.05;1.70;;;14.20;99.90;;;;;;5050190;28;20215;-77
2023/09/25 05:35:57;;;;;;;2.00;1.58;;;14.20;1.00;;;;;;5051856;28;20211;-77
2023/09/25 05:38:25;;;;;;;2.53;1.60;;;14.10;46.30;;;;;;5044083;28;20223;-76
2023/09/25 05:41:10;;;;;;;3.40;1.80;;;14.00;1.00;;;;;;5049036;28;20229;-77
2023/09/25 05:43:38;;;;;;;2.65;1.30;;;14.10;87.70;;;;;;5059023;28;20207;-77
2023/09/25 05:46:07;;;;;;;1.85;1.38;;;14.20;1.00;;;;;;5062907;28;20209;-77
2023/09/25 05:48:59;;;;;;;2.20;1.67;;;14.10;1.00;;;;;;5032740;28;20198;-77
2023/09/25 05:51:27;;;;;;;2.25;1.77;;;14.30;1.00;;;;;;5057553;28;20203;-76
2023/09/25 05:53:58;;;;;;;1.90;1.50;;;14.40;1.00;;;;;;5058952;28;20206;-77
2023/09/25 05:56:33;;;;;;;2.13;1.65;;;14.40;99.90;;;;;;5032608;28;20206;-76
2023/09/25 05:59:02;;;;;;;2.83;1.50;;;14.40;74.50;;;;;;5033616;28;20214;-77
2023/09/25 06:01:38;;;;;;;2.00;1.40;;;14.50;99.90;;;;;;5058126;28;20595;-77
2023/09/25 06:04:07;;;;;;;2.15;1.35;;;14.50;1.00;;;;;;5037862;28;20201;-77
2023/09/25 06:06:35;;;;;;;1.88;1.40;;;14.50;1.00;;;;;;5034312;28;20209;-77
2023/09/25 06:09:04;;;;;;;2.13;1.35;;;14.50;1.00;;;;;;5065585;28;20212;-77
2023/09/25 06:11:36;;;;;;;1.58;1.48;;;14.50;1.00;;;;;;5027031;28;20207;-77
2023/09/25 06:14:03;;;;;;;4.18;1.70;;;14.60;1.00;;;;;;5033578;28;20202;-78
2023/09/25 06:16:31;;;;;;;2.03;1.48;;;14.60;1.00;;;;;;5030140;28;20702;-77
2023/09/25 06:18:58;;;;;;;2.25;1.40;;;14.60;1.00;;;;;;5032637;28;20219;-75
2023/09/25 06:21:26;;;;;;;2.30;1.80;;;14.60;1.00;;;;;;5050372;28;20205;-78
2023/09/25 06:23:58;;;;;;;2.78;1.60;;;14.60;1.00;;;;;;5032953;28;20207;-76
2023/09/25 06:26:50;;;;;;;2.50;1.50;;;14.60;1.00;;;;;;5029665;28;20230;-75
2023/09/25 06:29:21;;;;;;;2.53;1.75;;;14.70;1.00;;;;;;5050815;28;20215;-75
2023/09/25 06:31:48;;;;;;;3.97;1.58;;;14.70;1.00;;;;;;5033910;28;20194;-77
2023/09/25 06:34:16;;;;;;;1.63;1.52;;;14.80;1.00;;;;;;5033277;28;20213;-75
2023/09/25 06:36:43;;;;;;;2.08;1.55;;;14.80;1.00;;;;;;5032685;28;20217;-76
2023/09/25 06:39:11;;;;;;;2.17;1.40;;;14.80;1.00;;;;;;5031726;28;20608;-75
2023/09/25 06:41:42;;;;;;;3.40;1.70;;;14.90;1.00;;;;;;5062120;28;20198;-75
2023/09/25 06:44:21;;;;;;;2.28;1.70;;;14.90;1.00;;;;;;5061845;28;20203;-75
2023/09/25 06:46:48;;;;;;;3.03;1.48;;;15.00;1.00;;;;;;5035998;28;20190;-76
2023/09/25 06:49:17;;;;;;;2.53;1.50;;;14.90;1.00;;;;;;5038328;28;20229;-76
2023/09/25 06:51:44;;;;;;;1.67;1.58;;;15.00;1.00;;;;;;5038232;28;20213;-76
2023/09/25 06:54:12;;;;;;;3.90;2.05;;;15.00;1.00;;;;;;5038940;28;20205;-76
2023/09/25 06:56:40;;;;;;;2.17;1.80;;;15.00;1.00;;;;;;5037530;28;20198;-78
2023/09/25 06:59:08;;;;;;;2.10;1.70;;;15.10;1.00;;;;;;5038886;28;20222;-76
2023/09/25 07:01:37;;;;;;;2.15;1.50;;;15.10;99.90;;;;;;5031201;28;20209;-75
2023/09/25 07:04:14;;;;;;;2.38;1.50;;;15.10;1.00;;;;;;5038106;28;20645;-77
2023/09/25 07:06:42;;;;;;;2.90;1.63;;;15.20;1.00;;;;;;5034120;28;20572;-76
2023/09/25 07:09:13;;;;;;;3.28;1.83;;;15.20;99.90;;;;;;5067212;28;20205;-75
2023/09/25 07:11:41;;;;;;;2.67;2.20;;;15.40;1.00;;;;;;5042560;28;20194;-75
2023/09/25 07:14:08;;;;;;;3.63;1.48;;;15.40;99.90;;;;;;5067088;28;20190;-75
2023/09/25 07:16:37;;;;;;;2.50;1.75;;;15.40;1.00;;;;;;5038040;28;20209;-76
2023/09/25 07:19:08;;;;;;;2.60;1.27;;;15.50;1.00;;;;;;5061465;28;20215;-77
2023/09/25 07:21:36;;;;;;;2.05;1.50;;;15.50;1.00;;;;;;5046663;28;20202;-76
2023/09/25 07:24:03;;;;;;;3.33;1.58;;;15.60;1.00;;;;;;5061201;28;20200;-76
2023/09/25 07:26:31;;;;;;;2.85;1.40;;;15.60;1.00;;;;;;5039179;28;20551;-76
2023/09/25 07:28:59;;;;;;;2.00;1.30;;;15.60;99.90;;;;;;5067413;28;20213;-76
2023/09/25 07:31:26;;;;;;;1.42;1.20;;;15.70;1.00;;;;;;5037644;28;20202;-76
2023/09/25 07:33:58;;;;;;;7.10;3.03;;;15.70;99.90;;;;;;5037245;28;20207;-74
2023/09/25 07:36:25;;;;;;;6.93;2.55;;;16.00;1.00;;;;;;5053787;28;20546;-75
2023/09/25 07:38:53;;;;;;;3.65;1.70;;;16.40;1.00;;;;;;5030816;28;20210;-76
2023/09/25 07:41:23;;;;;;;1.80;1.33;;;16.10;1.00;;;;;;5021773;28;20211;-76
2023/09/25 07:43:54;;;;;;;3.15;1.48;;;16.00;1.00;;;;;;5030323;28;20202;-76
2023/09/25 07:46:31;;;;;;;4.25;1.70;;;15.90;99.90;;;;;;5033805;28;20203;-76
2023/09/25 07:49:05;;;;;;;3.88;1.80;;;15.90;99.90;;;;;;5036337;28;20198;-76
2023/09/25 07:51:32;;;;;;;2.72;1.80;;;16.10;99.90;;;;;;5058266;28;20199;-76
2023/09/25 07:54:02;;;;;;;1.75;1.40;;;16.10;99.90;;;;;;5049677;28;20198;-76
2023/09/25 07:56:30;;;;;;;2.22;1.33;;;16.20;25.20;;;;;;5037579;28;20224;-76
2023/09/25 07:58:57;;;;;;;2.80;1.60;;;16.20;99.90;;;;;;5037244;28;20225;-76
2023/09/25 08:01:29;;;;;;;2.10;1.30;;;16.30;99.90;;;;;;5051110;28;20190;-76
2023/09/25 08:03:58;;;;;;;3.10;1.73;;;16.30;1.00;;;;;;5036172;28;20256;-76
2023/09/25 08:06:27;;;;;;;1.95;1.38;;;16.40;92.00;;;;;;5036436;28;20206;-76
2023/09/25 08:08:57;;;;;;;2.17;1.60;;;16.40;1.00;;;;;;5036216;28;20201;-76
2023/09/25 08:11:24;;;;;;;2.65;1.30;;;16.50;1.00;;;;;;5036271;28;20265;-75
2023/09/25 08:13:53;;;;;;;2.60;1.58;;;16.50;1.00;;;;;;5038495;28;20202;-76
2023/09/25 08:16:22;;;;;;;3.22;1.58;;;16.60;1.00;;;;;;5035806;28;20202;-77
2023/09/25 08:19:02;;;;;;;1.70;1.45;;;16.70;1.00;;;;;;5037184;28;20225;-76
2023/09/25 08:21:48;;;;;;;3.35;1.42;;;16.80;1.00;;;;;;5033413;28;20202;-76
2023/09/25 08:24:44;;;;;;;1.90;1.52;;;16.90;1.00;;;;;;5034001;28;20195;-76
2023/09/25 08:27:12;;;;;;;3.08;1.33;;;16.90;1.00;;;;;;5034608;28;20678;-77
2023/09/25 08:29:39;;;;;;;3.83;1.35;;;16.90;1.00;;;;;;5063559;28;20237;-77
2023/09/25 08:32:07;;;;;;;2.25;1.20;;;17.00;1.00;;;;;;5031312;28;20206;-77
2023/09/25 08:34:35;;;;;;;3.67;1.35;;;17.00;99.90;;;;;;5034893;28;20202;-77
2023/09/25 08:37:05;;;;;;;2.58;1.50;;;17.10;99.90;;;;;;5032530;28;20206;-77
2023/09/25 08:39:33;;;;;;;2.50;1.30;;;17.10;99.90;;;;;;5048443;28;20227;-77
2023/09/25 08:42:00;;;;;;;1.80;1.40;;;17.20;99.90;;;;;;5031843;28;20198;-77
2023/09/25 08:44:28;;;;;;;2.38;1.60;;;17.40;99.90;;;;;;5034024;28;20674;-77
2023/09/25 08:46:55;;;;;;;2.08;1.30;;;17.40;99.90;;;;;;5034478;28;20706;-77
2023/09/25 08:49:23;;;;;;;2.67;1.35;;;17.50;99.90;;;;;;5055001;28;20568;-76
2023/09/25 08:52:23;;;;;;;2.30;1.42;;;17.60;99.90;;;;;;5034616;28;20202;-76
2023/09/25 08:54:52;;;;;;;2.75;1.27;;;17.70;99.90;;;;;;5027774;28;20210;-77
2023/09/25 08:57:22;;;;;;;2.33;1.00;;;17.80;99.90;;;;;;5039898;28;20191;-77
2023/09/25 08:59:50;;;;;;;3.67;1.50;;;17.90;91.00;;;;;;5045158;28;20222;-77
2023/09/25 09:02:28;;;;;;;2.40;1.40;;;17.80;1.00;;;;;;5034289;28;20199;-77
2023/09/25 09:04:55;;;;;;;1.73;1.50;;;17.80;1.00;;;;;;5034510;28;20210;-76
2023/09/25 09:07:23;;;;;;;3.10;1.60;;;17.80;56.80;;;;;;5034021;28;20559;-76
2023/09/25 09:09:52;;;;;;;2.63;1.30;;;17.80;50.00;;;;;;5033357;28;20218;-76
2023/09/25 09:12:20;;;;;;;2.15;1.30;;;17.90;1.00;;;;;;5029949;28;20191;-77
2023/09/25 09:14:48;;;;;;;2.45;1.50;;;18.10;99.90;;;;;;5034611;28;20206;-78
2023/09/25 09:17:15;;;;;;;2.10;1.40;;;18.20;69.30;;;;;;5057808;28;20673;-78
2023/09/25 09:19:53;;;;;;;1.90;1.33;;;18.20;90.90;;;;;;5035884;28;20222;-78
2023/09/25 09:22:21;;;;;;;1.80;1.33;;;18.30;97.90;;;;;;5057611;28;20675;-79
2023/09/25 09:24:51;;;;;;;1.90;1.30;;;18.30;28.80;;;;;;5032275;28;20202;-78
2023/09/25 09:27:21;;;;;;;2.88;1.60;;;18.40;99.90;;;;;;5021492;28;20564;-76
2023/09/25 09:30:21;;;;;;;1.38;1.13;;;18.40;43.30;;;;;;5071904;28;20222;-76
2023/09/25 09:32:50;;;;;;;1.65;1.10;;;18.30;1.00;;;;;;5028560;28;20186;-76
2023/09/25 09:35:22;;;;;;;1.58;1.10;;;18.30;10.60;;;;;;5050419;28;20186;-76
2023/09/25 09:37:52;;;;;;;2.47;1.20;;;18.40;84.50;;;;;;5040579;28;20563;-76
2023/09/25 09:40:20;;;;;;;2.95;1.33;;;18.50;1.00;;;;;;5024529;28;20226;-76
2023/09/25 09:42:50;;;;;;;1.30;0.90;;;18.50;99.90;;;;;;5032865;28;20678;-76
2023/09/25 09:45:18;;;;;;;1.33;1.00;;;18.60;1.00;;;;;;5029044;28;20198;-76
2023/09/25 09:47:49;;;;;;;1.92;1.38;;;18.70;1.00;;;;;;5022153;28;20203;-76
2023/09/25 09:50:21;;;;;;;2.28;1.50;;;18.70;1.00;;;;;;5026862;28;20222;-76
2023/09/25 09:52:49;;;;;;;1.95;1.27;;;18.70;1.00;;;;;;5050547;28;20187;-76
2023/09/25 09:55:19;;;;;;;1.20;1.00;;;18.70;1.00;;;;;;5027795;28;20563;-76
2023/09/25 09:57:46;;;;;;;1.67;1.25;;;18.80;1.00;;;;;;5048735;28;20198;-76
2023/09/25 10:00:16;;;;;;;2.30;1.40;;;19.00;1.00;;;;;;5033160;28;20226;-75
2023/09/25 10:02:45;;;;;;;3.22;2.10;;;19.10;1.00;;;;;;5035365;28;20194;-76
2023/09/25 10:05:14;;;;;;;1.83;1.33;;;19.30;1.00;;;;;;5028362;28;20675;-76
2023/09/25 10:08:05;;;;;;;2.63;1.58;;;19.40;1.00;;;;;;5051910;28;20181;-76
2023/09/25 10:10:32;;;;;;;2.42;1.00;;;19.50;1.00;;;;;;5061548;28;20676;-76
2023/09/25 10:13:00;;;;;;;1.77;0.95;;;19.50;1.00;;;;;;5076167;28;20202;-76
2023/09/25 10:15:30;;;;;;;3.13;1.23;;;19.70;1.00;;;;;;5051610;28;20588;-76
2023/09/25 10:17:58;;;;;;;1.75;1.20;;;19.70;1.00;;;;;;5053604;28;20202;-76
2023/09/25 10:20:33;;;;;;;1.88;1.30;;;19.60;1.00;;;;;;5056863;28;20223;-76
2023/09/25 10:23:08;;;;;;;2.67;1.40;;;19.70;1.00;;;;;;5043513;28;20197;-76
2023/09/25 10:25:47;;;;;;;2.78;1.20;;;19.80;1.00;;;;;;5054500;28;20197;-76
2023/09/25 10:28:22;;;;;;;1.55;1.10;;;19.80;1.00;;;;;;5045651;28;20202;-76
2023/09/25 10:30:52;;;;;;;2.00;1.20;;;19.90;1.00;;;;;;5065386;28;20206;-76
2023/09/25 10:33:21;;;;;;;1.48;1.00;;;20.00;1.00;;;;;;5037604;28;20206;-76
2023/09/25 10:35:51;;;;;;;2.78;1.52;;;20.20;1.00;;;;;;5049246;28;20226;-75
2023/09/25 10:38:22;;;;;;;1.13;1.00;;;20.30;1.00;;;;;;5045225;28;20206;-75
2023/09/25 10:40:50;;;;;;;2.67;1.23;;;20.40;1.00;;;;;;5043556;28;20213;-75
2023/09/25 10:43:19;;;;;;;1.98;1.27;;;20.60;1.00;;;;;;5047819;28;20209;-75
2023/09/25 10:49:37;;;;;;;1.27;1.00;;;20.60;1.00;;;;;;5069261;28;20202;-75
2023/09/25 10:52:05;;;;;;;3.42;1.13;;;20.80;1.00;;;;;;5039580;28;20202;-75
2023/09/25 10:54:34;;;;;;;2.72;1.23;;;20.80;1.00;;;;;;5045329;28;20201;-75
2023/09/25 10:57:01;;;;;;;1.52;1.13;;;20.70;1.00;;;;;;5037345;28;20199;-75
2023/09/25 10:59:29;;;;;;;1.17;0.90;;;20.70;1.00;;;;;;5042383;28;20229;-75
2023/09/25 11:01:56;;;;;;;1.10;1.00;;;20.80;1.00;;;;;;5039857;28;20383;-75
2023/09/25 11:04:24;;;;;;;1.75;1.25;;;20.90;1.00;;;;;;5070362;28;20705;-75
2023/09/25 11:06:53;;;;;;;2.60;1.23;;;20.80;23.30;;;;;;5035880;28;20204;-76
2023/09/25 11:09:20;;;;;;;2.88;1.20;;;20.90;1.00;;;;;;5073825;28;20222;-75
2023/09/25 11:11:55;;;;;;;2.53;1.17;;;21.00;99.90;;;;;;5040021;28;20197;-75
2023/09/25 11:14:23;;;;;;;2.20;0.93;;;21.20;1.00;;;;;;5041535;28;20196;-75
2023/09/25 11:16:50;;;;;;;1.58;1.10;;;21.00;1.00;;;;;;5066801;28;20205;-75
2023/09/25 11:19:31;;;;;;;2.60;1.42;;;21.00;1.00;;;;;;5045471;28;20717;-75
2023/09/25 11:22:03;;;;;;;2.33;1.10;;;21.10;1.00;;;;;;5034162;28;20691;-75
2023/09/25 11:24:33;;;;;;;2.35;1.00;;;21.00;44.90;;;;;;5041365;28;20660;-75
2023/09/25 11:27:08;;;;;;;1.25;1.00;;;21.00;1.00;;;;;;5035365;28;20203;-76
2023/09/25 11:29:36;;;;;;;1.75;1.17;;;21.20;1.00;;;;;;5032217;28;20249;-76
2023/09/25 11:35:18;;;;;;;2.95;1.10;;;21.70;1.00;;;;;;5068116;28;20198;-76
2023/09/25 11:38:01;;;;;;;1.73;0.82;;;21.80;1.00;;;;;;5045283;28;20670;-76
2023/09/25 11:40:30;;;;;;;2.72;0.95;;;21.70;1.00;;;;;;5034103;28;20222;-76
2023/09/25 11:42:58;;;;;;;1.70;1.13;;;21.90;1.00;;;;;;5036911;28;20206;-76
2023/09/25 11:45:25;;;;;;;2.17;1.00;;;22.10;1.00;;;;;;5035912;28;20209;-76
2023/09/25 11:47:53;;;;;;;1.83;1.10;;;22.10;1.00;;;;;;5034080;28;20203;-76
2023/09/25 11:50:22;;;;;;;1.40;1.05;;;22.00;1.00;;;;;;5032514;28;20222;-77
2023/09/25 11:52:49;;;;;;;1.63;0.80;;;22.10;1.00;;;;;;5036877;28;20198;-76
2023/09/25 11:55:19;;;;;;;2.08;1.17;;;22.00;1.00;;;;;;5062037;28;20695;-79
2023/09/25 11:57:46;;;;;;;1.30;0.90;;;22.00;1.00;;;;;;5046847;28;20198;-77
2023/09/25 12:00:16;;;;;;;1.80;1.30;;;22.20;1.00;;;;;;5035257;28;20246;-77
2023/09/25 12:02:46;;;;;;;2.20;1.05;;;22.30;1.00;;;;;;5044880;28;20194;-76
2023/09/25 12:05:13;;;;;;;4.03;1.10;;;22.40;1.00;;;;;;5029286;28;20206;-77
2023/09/25 12:07:41;;;;;;;1.95;1.17;;;22.50;1.00;;;;;;5031958;28;20203;-76
2023/09/25 12:10:12;;;;;;;1.10;0.98;;;22.60;1.00;;;;;;5019049;28;20242;-76
2023/09/25 12:12:44;;;;;;;1.63;0.95;;;22.60;1.00;;;;;;5030898;28;20207;-77
2023/09/25 12:15:13;;;;;;;1.17;1.08;;;22.50;1.00;;;;;;5016520;28;20203;-76
2023/09/25 12:17:40;;;;;;;1.45;0.95;;;22.50;1.00;;;;;;5022794;28;20203;-77
2023/09/25 12:20:12;;;;;;;1.60;1.00;;;22.60;1.00;;;;;;5052085;28;20229;-77
2023/09/25 12:22:41;;;;;;;1.25;1.00;;;22.80;1.00;;;;;;5026826;28;20223;-77
2023/09/25 12:25:11;;;;;;;1.60;1.08;;;22.90;1.00;;;;;;5023352;28;20206;-76
2023/09/25 12:27:40;;;;;;;3.85;1.30;;;22.80;1.00;;;;;;5049096;28;20190;-77
2023/09/25 12:30:13;;;;;;;1.50;0.90;;;23.00;1.00;;;;;;5030097;28;20229;-76
2023/09/25 12:32:41;;;;;;;1.73;1.10;;;22.80;1.00;;;;;;5034053;28;20207;-76
2023/09/25 12:35:09;;;;;;;2.08;1.00;;;22.80;1.00;;;;;;5026134;28;20211;-77
2023/09/25 12:37:37;;;;;;;2.20;1.20;;;22.70;1.00;;;;;;5035149;28;20203;-77
2023/09/25 12:40:23;;;;;;;1.20;1.00;;;23.10;1.00;;;;;;5028245;28;20227;-77
2023/09/25 12:42:50;;;;;;;1.10;0.90;;;23.10;1.00;;;;;;5060571;28;20575;-76
2023/09/25 12:45:20;;;;;;;1.27;0.98;;;23.20;1.00;;;;;;5032464;28;20221;-77
2023/09/25 12:47:47;;;;;;;1.52;1.08;;;23.30;1.00;;;;;;5034355;28;20217;-77
2023/09/25 12:50:15;;;;;;;1.85;1.20;;;23.30;1.00;;;;;;5034103;28;20229;-77
2023/09/25 12:53:08;;;;;;;1.27;1.08;;;23.50;1.00;;;;;;5059716;28;20218;-76
2023/09/25 12:55:36;;;;;;;1.52;0.95;;;23.80;1.00;;;;;;5027958;28;20205;-77
2023/09/25 12:58:04;;;;;;;2.35;1.23;;;23.90;1.00;;;;;;5025169;28;20206;-77
2023/09/25 13:00:32;;;;;;;0.90;0.70;;;24.10;1.00;;;;;;5033877;28;20226;-77
2023/09/25 13:03:00;;;;;;;2.33;0.93;;;24.30;1.00;;;;;;5035130;28;20221;-76
2023/09/25 13:05:28;;;;;;;1.48;1.10;;;24.00;1.00;;;;;;5033301;28;20568;-76
2023/09/25 13:07:56;;;;;;;1.42;0.80;;;23.80;1.00;;;;;;5062901;28;20557;-76
2023/09/25 13:10:24;;;;;;;1.88;0.85;;;23.60;1.00;;;;;;5027377;28;20214;-76
2023/09/25 13:13:11;;;;;;;2.38;1.00;;;23.40;1.00;;;;;;5029608;28;20203;-75
2023/09/25 13:15:40;;;;;;;1.35;1.10;;;23.20;1.00;;;;;;5033057;28;20209;-76
2023/09/25 13:18:08;;;;;;;2.25;1.20;;;23.20;1.00;;;;;;5065434;28;20198;-76